Time;durP1;ratioP1;P1;durP2;ratioP2;P2;SDS_P1;SDS_P2;PMS_P1;PMS_P2;Temp;Humidity;BMP_temperature;BMP_pressure;BME280_temperature;BME280_humidity;BME280_pressure;Samples;Min_cycle;Max_cycle;Signal;HPM_P1;HPM_P2
2021/12/10 00:02:31;;;;;;;5.30;2.05;;;19.30;50.70;;;;;;4987684;28;20410;-82
2021/12/10 00:04:56;;;;;;;5.72;2.13;;;19.30;50.70;;;;;;4971785;28;20057;-82
2021/12/10 00:07:23;;;;;;;4.95;1.98;;;19.30;50.70;;;;;;4970859;28;20047;-82
2021/12/10 00:09:52;;;;;;;5.70;1.60;;;19.30;50.70;;;;;;4971596;28;20050;-82
2021/12/10 00:12:23;;;;;;;5.82;2.40;;;19.30;50.70;;;;;;4971605;28;20046;-82
2021/12/10 00:14:49;;;;;;;5.25;1.83;;;19.30;50.70;;;;;;4971169;28;20059;-82
2021/12/10 00:17:15;;;;;;;6.28;2.35;;;20.20;51.20;;;;;;4970469;28;20043;-82
2021/12/10 00:19:46;;;;;;;5.20;1.70;;;19.30;50.80;;;;;;4971471;28;20133;-81
2021/12/10 00:22:46;;;;;;;4.38;1.80;;;19.30;50.70;;;;;;4973108;28;20046;-81
2021/12/10 00:25:17;;;;;;;3.63;1.38;;;19.30;50.70;;;;;;4970335;28;20060;-81
2021/12/10 00:27:43;;;;;;;4.57;1.67;;;19.30;50.70;;;;;;4989957;28;20047;-81
2021/12/10 00:30:27;;;;;;;3.78;1.63;;;19.20;50.60;;;;;;4990301;28;20046;-82
2021/12/10 00:33:03;;;;;;;4.63;1.80;;;19.30;50.70;;;;;;4990317;28;20482;-82
2021/12/10 00:35:30;;;;;;;5.10;1.65;;;19.30;50.70;;;;;;4989884;28;20072;-82
2021/12/10 00:37:56;;;;;;;4.90;1.58;;;19.30;50.70;;;;;;4990491;28;20047;-82
2021/12/10 00:40:22;;;;;;;4.45;1.65;;;19.30;50.70;;;;;;4989962;28;20461;-82
2021/12/10 00:42:47;;;;;;;3.63;1.38;;;19.20;50.60;;;;;;4989566;28;20061;-82
2021/12/10 00:45:14;;;;;;;3.80;1.65;;;19.20;50.70;;;;;;4990752;28;20042;-81
2021/12/10 00:47:40;;;;;;;4.70;1.70;;;19.30;50.70;;;;;;4989940;28;20093;-82
2021/12/10 00:50:08;;;;;;;4.50;1.77;;;19.30;50.70;;;;;;4989586;28;20050;-81
2021/12/10 00:52:33;;;;;;;4.82;1.50;;;19.30;50.80;;;;;;4990292;28;20526;-82
2021/12/10 00:54:59;;;;;;;3.30;1.23;;;19.20;50.70;;;;;;4990021;28;20138;-82
2021/12/10 00:57:24;;;;;;;3.50;1.38;;;19.30;50.80;;;;;;4989746;28;20401;-82
2021/12/10 00:59:50;;;;;;;3.90;1.45;;;19.30;50.80;;;;;;4989866;28;20662;-81
2021/12/10 01:02:23;;;;;;;2.55;0.93;;;19.30;50.80;;;;;;4989685;28;20046;-81
2021/12/10 01:04:51;;;;;;;4.68;1.48;;;19.40;50.80;;;;;;4989369;28;20046;-82
2021/12/10 01:07:19;;;;;;;3.20;1.20;;;20.00;51.20;;;;;;4989925;28;20077;-82
2021/12/10 01:09:51;;;;;;;3.88;1.67;;;19.30;50.80;;;;;;4989192;28;20053;-81
2021/12/10 01:12:22;;;;;;;;;;;19.70;51.00;;;;;;4990320;28;20073;-82
2021/12/10 01:15:04;;;;;;;3.15;0.95;;;19.30;50.80;;;;;;4989799;28;19932;-82
2021/12/10 01:26:07;;;;;;;3.80;1.17;;;19.30;50.70;;;;;;4989038;28;20074;-83
2021/12/10 01:28:35;;;;;;;2.88;1.08;;;19.30;50.70;;;;;;4988548;28;20054;-83
2021/12/10 01:31:00;;;;;;;4.00;1.42;;;19.30;50.70;;;;;;4989008;28;20058;-82
2021/12/10 01:33:26;;;;;;;4.53;1.17;;;19.30;50.70;;;;;;4989620;28;20134;-83
2021/12/10 01:35:54;;;;;;;2.50;1.05;;;19.30;50.70;;;;;;4989347;28;20494;-83
2021/12/10 01:38:20;;;;;;;3.80;1.20;;;19.30;50.70;;;;;;4988266;28;20053;-82
2021/12/10 01:40:48;;;;;;;3.60;1.20;;;19.20;50.60;;;;;;4988806;28;20556;-82
2021/12/10 01:43:22;;;;;;;2.45;0.95;;;19.20;50.60;;;;;;4989409;28;20058;-83
2021/12/10 01:45:49;;;;;;;3.45;1.10;;;19.20;50.70;;;;;;4963816;28;20055;-82
2021/12/10 01:48:24;;;;;;;3.80;1.13;;;19.30;50.70;;;;;;4950276;28;20470;-82
2021/12/10 01:50:50;;;;;;;3.63;1.15;;;19.30;50.70;;;;;;4950410;29;20050;-82
2021/12/10 01:53:18;;;;;;;3.58;1.10;;;19.30;50.70;;;;;;4949922;28;20039;-82
2021/12/10 01:55:45;;;;;;;3.78;1.20;;;20.20;51.20;;;;;;4950392;29;20111;-82
2021/12/10 01:58:14;;;;;;;3.42;1.13;;;19.20;50.70;;;;;;4950283;28;20046;-82
2021/12/10 02:00:56;;;;;;;2.70;1.08;;;19.20;50.70;;;;;;4955945;28;20058;-83
2021/12/10 02:03:22;;;;;;;2.67;1.08;;;20.10;51.20;;;;;;4988888;28;20042;-83
2021/12/10 02:05:47;;;;;;;2.72;0.90;;;19.30;50.70;;;;;;4978123;28;20117;-82
2021/12/10 02:08:13;;;;;;;2.13;0.93;;;19.20;50.70;;;;;;4626461;28;10000171;-82
2021/12/10 02:10:39;;;;;;;3.38;1.13;;;19.30;50.80;;;;;;4969464;28;20548;-82
2021/12/10 02:13:04;;;;;;;2.30;0.93;;;19.30;50.80;;;;;;4952638;28;20078;-83
2021/12/10 02:15:30;;;;;;;3.30;1.13;;;19.30;50.80;;;;;;4969482;28;20047;-82
2021/12/10 02:17:57;;;;;;;3.05;1.20;;;19.30;50.80;;;;;;4969452;28;20051;-82
2021/12/10 02:20:45;;;;;;;2.78;0.90;;;19.20;50.70;;;;;;4968608;28;20047;-82
2021/12/10 02:23:11;;;;;;;2.38;0.88;;;19.30;50.80;;;;;;4922794;28;20283;-82
2021/12/10 02:25:37;;;;;;;2.90;1.02;;;19.30;50.80;;;;;;4969348;28;20050;-82
2021/12/10 02:28:04;;;;;;;1.98;0.90;;;20.50;51.40;;;;;;4968905;28;20192;-82
2021/12/10 02:30:30;;;;;;;3.17;1.10;;;19.30;50.80;;;;;;4969080;28;20090;-82
2021/12/10 02:32:55;;;;;;;2.92;1.00;;;19.30;50.80;;;;;;4969043;28;20047;-82
2021/12/10 02:35:21;;;;;;;2.63;0.90;;;19.30;50.80;;;;;;4970065;28;20069;-82
2021/12/10 02:37:47;;;;;;;2.30;0.85;;;19.30;50.80;;;;;;4969074;28;20514;-82
2021/12/10 02:40:14;;;;;;;2.83;1.05;;;19.30;50.70;;;;;;4960854;28;20055;-82
2021/12/10 02:42:40;;;;;;;3.25;0.95;;;19.30;50.80;;;;;;4992359;28;20089;-82
2021/12/10 02:45:06;;;;;;;3.13;0.93;;;19.30;50.80;;;;;;4992614;28;20093;-82
2021/12/10 02:47:32;;;;;;;2.47;1.08;;;19.30;50.70;;;;;;4992547;28;20089;-82
2021/12/10 02:49:58;;;;;;;3.15;1.00;;;19.30;50.80;;;;;;4991919;28;20054;-82
2021/12/10 02:52:26;;;;;;;2.33;0.90;;;19.30;50.70;;;;;;4992308;28;20105;-82
2021/12/10 02:54:51;;;;;;;3.35;0.73;;;19.30;50.70;;;;;;4976424;28;20054;-82
2021/12/10 02:57:17;;;;;;;3.38;1.08;;;19.20;50.70;;;;;;4991850;28;20050;-81
2021/12/10 02:59:43;;;;;;;2.05;0.95;;;19.30;50.70;;;;;;4992264;28;20074;-82
2021/12/10 03:02:12;;;;;;;3.55;0.95;;;19.30;50.70;;;;;;4991432;28;20055;-82
2021/12/10 03:04:38;;;;;;;2.88;0.98;;;19.20;50.70;;;;;;5025164;28;20406;-82
2021/12/10 03:07:08;;;;;;;2.05;0.70;;;19.20;50.70;;;;;;4992143;28;20042;-82
2021/12/10 03:09:34;;;;;;;1.52;0.60;;;19.20;50.70;;;;;;4990579;28;20125;-82
2021/12/10 03:12:00;;;;;;;1.85;0.82;;;19.20;50.70;;;;;;4991916;28;20490;-81
2021/12/10 03:14:31;;;;;;;1.90;0.82;;;19.90;51.10;;;;;;4992129;28;20061;-82
2021/12/10 03:16:58;;;;;;;2.53;0.90;;;19.30;50.80;;;;;;5024228;28;20494;-82
2021/12/10 03:19:23;;;;;;;2.28;0.90;;;19.20;50.70;;;;;;4992019;28;20313;-82
2021/12/10 03:21:51;;;;;;;2.38;0.80;;;19.30;50.80;;;;;;4991626;28;20042;-82
2021/12/10 03:24:18;;;;;;;2.92;0.88;;;19.30;50.80;;;;;;4990952;28;20065;-82
2021/12/10 03:26:44;;;;;;;3.88;0.90;;;19.30;50.80;;;;;;4991673;28;20054;-82
2021/12/10 03:29:10;;;;;;;2.85;0.90;;;19.20;50.70;;;;;;4991696;28;20062;-82
2021/12/10 03:31:35;;;;;;;1.98;0.73;;;19.30;50.80;;;;;;4990944;28;20886;-82
2021/12/10 03:34:01;;;;;;;1.85;0.75;;;19.30;50.80;;;;;;4975136;28;20081;-82
2021/12/10 03:36:27;;;;;;;2.25;0.88;;;19.30;50.80;;;;;;4989275;28;20050;-82
2021/12/10 03:38:52;;;;;;;2.03;0.70;;;19.60;51.00;;;;;;4974731;28;20053;-82
2021/12/10 03:41:18;;;;;;;3.15;0.90;;;19.30;50.80;;;;;;4991351;28;20053;-81
2021/12/10 03:43:46;;;;;;;1.92;0.80;;;19.30;50.80;;;;;;4975660;28;20403;-81
2021/12/10 03:46:12;;;;;;;1.65;0.70;;;19.30;50.80;;;;;;4990796;28;20058;-81
2021/12/10 03:48:40;;;;;;;2.00;0.68;;;19.30;50.80;;;;;;4991594;28;20054;-81
2021/12/10 03:51:07;;;;;;;1.90;0.80;;;19.30;50.80;;;;;;4990768;28;20461;-81
2021/12/10 03:53:33;;;;;;;2.42;0.70;;;19.30;50.80;;;;;;4974137;28;20077;-81
2021/12/10 03:56:01;;;;;;;2.42;0.85;;;19.30;50.80;;;;;;4951692;28;20062;-81
2021/12/10 03:58:27;;;;;;;1.88;0.68;;;19.30;50.80;;;;;;4961814;28;20149;-81
2021/12/10 04:00:52;;;;;;;3.25;0.80;;;19.30;50.80;;;;;;4991252;28;20598;-82
2021/12/10 04:03:19;;;;;;;2.85;1.00;;;19.30;50.80;;;;;;4992363;28;20097;-82
2021/12/10 04:05:45;;;;;;;3.35;1.05;;;19.30;50.80;;;;;;4990604;28;20137;-83
2021/12/10 04:08:10;;;;;;;2.30;0.63;;;19.30;50.80;;;;;;4987752;28;20138;-82
2021/12/10 04:10:36;;;;;;;2.08;1.00;;;19.30;50.80;;;;;;4990816;28;20422;-82
2021/12/10 04:13:02;;;;;;;2.05;0.75;;;19.40;50.80;;;;;;4990361;28;20050;-82
2021/12/10 04:15:28;;;;;;;2.05;0.70;;;19.30;50.80;;;;;;5023725;28;20053;-82
2021/12/10 04:17:55;;;;;;;3.00;0.60;;;19.30;50.80;;;;;;4991120;28;20054;-82
2021/12/10 04:20:21;;;;;;;1.73;0.65;;;19.30;50.80;;;;;;4990383;28;20529;-82
2021/12/10 04:22:47;;;;;;;1.80;0.63;;;19.30;50.80;;;;;;4990794;28;20082;-82
2021/12/10 04:25:13;;;;;;;2.17;0.77;;;20.10;51.20;;;;;;4990808;28;20042;-81
2021/12/10 04:27:39;;;;;;;1.73;0.70;;;19.30;50.80;;;;;;4990215;28;20054;-82
2021/12/10 04:30:05;;;;;;;1.80;0.82;;;19.30;50.80;;;;;;4990432;28;20152;-82
2021/12/10 04:32:31;;;;;;;1.33;0.55;;;19.30;50.80;;;;;;4987742;28;20086;-82
2021/12/10 04:34:57;;;;;;;2.33;0.50;;;19.30;50.80;;;;;;4989904;28;20822;-81
2021/12/10 04:37:22;;;;;;;1.73;0.77;;;19.30;50.80;;;;;;4990321;28;20042;-82
2021/12/10 04:39:48;;;;;;;2.15;0.80;;;19.30;50.80;;;;;;4990629;28;20133;-82
2021/12/10 04:42:23;;;;;;;1.73;0.57;;;19.40;50.80;;;;;;4989555;28;20061;-82
2021/12/10 04:44:51;;;;;;;2.03;0.80;;;19.40;50.80;;;;;;4996254;28;20124;-83
2021/12/10 04:47:16;;;;;;;2.00;0.60;;;19.50;50.80;;;;;;5002454;28;20046;-82
2021/12/10 04:49:42;;;;;;;2.08;0.75;;;19.80;51.00;;;;;;4989670;28;20089;-82
2021/12/10 04:52:08;;;;;;;1.55;0.57;;;19.40;50.80;;;;;;4990004;28;20137;-81
2021/12/10 04:54:33;;;;;;;1.75;0.52;;;19.40;50.80;;;;;;4988180;28;20061;-82
2021/12/10 04:56:59;;;;;;;2.15;0.77;;;19.40;50.90;;;;;;4988830;28;20054;-82
2021/12/10 04:59:27;;;;;;;1.98;0.73;;;19.30;50.80;;;;;;4974275;28;20070;-83
2021/12/10 05:01:54;;;;;;;2.10;0.82;;;19.40;50.80;;;;;;4989517;28;20051;-83
2021/12/10 05:04:20;;;;;;;2.55;0.68;;;19.30;50.80;;;;;;4989315;28;20586;-83
2021/12/10 05:06:45;;;;;;;1.08;0.50;;;19.40;50.80;;;;;;4989932;28;20097;-83
2021/12/10 05:09:11;;;;;;;1.75;0.65;;;19.40;50.80;;;;;;4991506;28;20066;-83
2021/12/10 05:11:37;;;;;;;0.93;0.50;;;19.40;50.80;;;;;;4989969;28;20042;-82
2021/12/10 05:14:03;;;;;;;1.45;0.50;;;19.40;50.80;;;;;;4989802;28;20053;-82
2021/12/10 05:16:28;;;;;;;1.95;0.70;;;19.40;50.80;;;;;;4989110;28;20466;-82
2021/12/10 05:18:58;;;;;;;1.35;0.60;;;19.40;50.80;;;;;;4992643;28;20099;-82
2021/12/10 05:21:27;;;;;;;1.85;0.63;;;19.40;50.80;;;;;;4983555;28;20058;-82
2021/12/10 05:23:53;;;;;;;1.75;0.73;;;20.20;51.20;;;;;;4988746;28;20081;-82
2021/12/10 05:26:19;;;;;;;2.05;0.60;;;19.40;50.80;;;;;;4989505;28;20568;-83
2021/12/10 05:28:45;;;;;;;1.38;0.50;;;19.40;50.70;;;;;;4989454;28;20042;-83
2021/12/10 05:31:10;;;;;;;2.05;0.60;;;19.40;50.70;;;;;;4988874;28;20081;-82
2021/12/10 05:33:36;;;;;;;1.75;0.50;;;19.40;50.80;;;;;;4989404;28;20136;-83
2021/12/10 05:36:02;;;;;;;1.77;0.70;;;19.40;50.70;;;;;;4981751;28;20066;-83
2021/12/10 05:38:27;;;;;;;1.95;0.60;;;19.40;50.70;;;;;;4969564;28;20177;-82
2021/12/10 05:40:53;;;;;;;1.55;0.40;;;19.40;50.70;;;;;;4969664;28;20550;-83
2021/12/10 05:43:19;;;;;;;1.70;0.50;;;19.40;50.80;;;;;;4970068;28;20067;-82
2021/12/10 05:45:45;;;;;;;1.02;0.45;;;19.40;50.80;;;;;;4969071;28;20376;-83
2021/12/10 05:48:11;;;;;;;1.40;0.50;;;19.40;50.80;;;;;;4969810;28;20494;-84
2021/12/10 05:50:37;;;;;;;2.13;0.65;;;20.90;51.60;;;;;;4969593;28;20058;-83
2021/12/10 05:53:03;;;;;;;1.48;0.60;;;19.50;50.80;;;;;;4969086;28;20057;-83
2021/12/10 05:55:29;;;;;;;1.35;0.63;;;19.40;50.80;;;;;;4969576;28;20160;-83
2021/12/10 05:57:55;;;;;;;1.17;0.45;;;19.50;50.80;;;;;;4968802;28;20089;-83
2021/12/10 06:00:29;;;;;;;1.70;0.68;;;19.60;50.80;;;;;;4969662;28;20046;-83
2021/12/10 06:02:54;;;;;;;1.40;0.40;;;19.50;50.80;;;;;;4969586;28;20503;-83
2021/12/10 06:05:20;;;;;;;0.82;0.40;;;19.40;50.70;;;;;;4969099;28;20053;-83
2021/12/10 06:07:46;;;;;;;1.77;0.60;;;19.50;50.80;;;;;;4969408;28;20053;-83
2021/12/10 06:10:12;;;;;;;1.52;0.60;;;19.50;50.80;;;;;;4962593;28;20116;-83
2021/12/10 06:12:37;;;;;;;2.17;0.50;;;19.50;50.80;;;;;;4979540;28;20509;-82
2021/12/10 06:15:04;;;;;;;1.33;0.50;;;19.50;50.80;;;;;;4982157;28;20054;-83
2021/12/10 06:17:30;;;;;;;1.90;0.50;;;19.40;50.70;;;;;;4988869;28;20042;-83
2021/12/10 06:19:56;;;;;;;1.77;0.85;;;19.50;50.80;;;;;;4988324;28;20042;-83
2021/12/10 06:22:21;;;;;;;1.02;0.50;;;19.40;50.70;;;;;;4979116;28;20637;-83
2021/12/10 06:24:47;;;;;;;2.25;0.60;;;19.50;50.80;;;;;;4976555;28;20201;-83
2021/12/10 06:27:12;;;;;;;1.88;0.50;;;20.00;51.00;;;;;;4988482;28;20050;-83
2021/12/10 06:29:41;;;;;;;0.70;0.40;;;20.40;51.20;;;;;;4988311;28;20422;-83
2021/12/10 06:32:08;;;;;;;1.65;0.50;;;19.50;50.70;;;;;;4977420;28;20059;-84
2021/12/10 06:34:34;;;;;;;1.38;0.50;;;19.50;50.70;;;;;;4980682;28;20402;-83
2021/12/10 06:36:59;;;;;;;1.30;0.40;;;19.50;50.70;;;;;;4978103;28;20549;-83
2021/12/10 06:39:25;;;;;;;1.58;0.52;;;19.50;50.70;;;;;;5007919;28;20057;-83
2021/12/10 06:41:51;;;;;;;1.40;0.50;;;19.50;50.80;;;;;;4996193;28;20050;-83
2021/12/10 06:44:16;;;;;;;1.38;0.50;;;19.50;50.70;;;;;;4988141;28;20042;-83
2021/12/10 06:46:44;;;;;;;0.85;0.40;;;19.50;50.80;;;;;;5001850;28;20056;-83
2021/12/10 06:49:10;;;;;;;1.33;0.43;;;19.50;51.50;;;;;;4991707;28;20089;-82
2021/12/10 06:51:36;;;;;;;1.48;0.52;;;19.50;50.70;;;;;;4988659;28;20058;-83
2021/12/10 06:54:02;;;;;;;0.90;0.47;;;19.50;50.80;;;;;;5007732;28;20050;-83
2021/12/10 06:56:29;;;;;;;1.25;0.40;;;19.50;50.70;;;;;;5017202;28;20203;-84
2021/12/10 06:58:57;;;;;;;0.95;0.35;;;19.50;50.80;;;;;;5027906;28;20411;-83
2021/12/10 07:01:27;;;;;;;1.27;0.63;;;19.50;50.80;;;;;;5026678;28;20041;-83
2021/12/10 07:03:53;;;;;;;1.73;0.43;;;19.50;50.80;;;;;;5009088;28;20039;-83
2021/12/10 07:06:19;;;;;;;1.38;0.45;;;19.50;50.80;;;;;;5021606;28;20583;-84
2021/12/10 07:08:45;;;;;;;0.77;0.35;;;19.50;51.40;;;;;;4999194;28;20070;-83
2021/12/10 07:11:11;;;;;;;0.60;0.30;;;19.50;50.80;;;;;;4969851;28;20074;-84
2021/12/10 07:13:37;;;;;;;1.10;0.32;;;19.60;50.80;;;;;;4968651;28;20153;-83
2021/12/10 07:16:03;;;;;;;1.60;0.40;;;19.50;50.80;;;;;;5021051;28;20537;-83
2021/12/10 07:18:29;;;;;;;1.30;0.43;;;19.50;50.70;;;;;;5005165;28;20446;-82
2021/12/10 07:20:55;;;;;;;1.58;0.40;;;19.50;50.70;;;;;;4985246;28;20620;-82
2021/12/10 07:23:21;;;;;;;0.90;0.40;;;20.80;51.40;;;;;;4987661;28;20414;-83
2021/12/10 07:25:47;;;;;;;1.33;0.60;;;19.50;50.80;;;;;;4988349;28;20050;-82
2021/12/10 07:28:13;;;;;;;1.75;0.52;;;19.70;50.80;;;;;;4992226;28;20043;-82
2021/12/10 07:30:39;;;;;;;1.27;0.40;;;19.50;50.80;;;;;;5000079;28;20531;-82
2021/12/10 07:33:05;;;;;;;0.60;0.30;;;19.50;50.70;;;;;;4993462;28;20046;-81
2021/12/10 07:35:31;;;;;;;1.50;0.52;;;19.50;50.70;;;;;;5010932;28;20402;-81
2021/12/10 07:37:56;;;;;;;1.13;0.40;;;19.60;50.70;;;;;;5010547;28;20050;-81
2021/12/10 07:40:24;;;;;;;1.08;0.30;;;19.50;50.70;;;;;;5011286;28;20133;-81
2021/12/10 07:42:49;;;;;;;1.48;0.40;;;19.50;50.70;;;;;;5008877;28;20054;-81
2021/12/10 07:45:15;;;;;;;1.27;0.40;;;19.50;50.70;;;;;;5023440;28;20045;-82
2021/12/10 07:47:41;;;;;;;1.60;0.50;;;19.50;50.70;;;;;;4984872;28;20069;-80
2021/12/10 07:50:09;;;;;;;1.90;0.40;;;19.50;50.70;;;;;;4971465;28;20093;-81
2021/12/10 07:52:35;;;;;;;1.38;0.50;;;19.40;50.60;;;;;;4987863;28;20068;-81
2021/12/10 07:55:06;;;;;;;1.17;0.40;;;19.50;50.70;;;;;;4980136;28;20043;-81
2021/12/10 07:57:32;;;;;;;2.05;0.50;;;19.50;50.60;;;;;;4981707;28;20053;-81
2021/12/10 07:59:57;;;;;;;1.10;0.50;;;19.50;50.70;;;;;;4985477;28;20466;-81
2021/12/10 08:02:23;;;;;;;1.27;0.47;;;19.50;50.70;;;;;;5010304;28;20486;-81
2021/12/10 08:04:48;;;;;;;1.17;0.40;;;19.50;50.60;;;;;;4979898;28;20042;-81
2021/12/10 08:07:14;;;;;;;1.17;0.50;;;19.50;50.60;;;;;;4991152;28;20106;-81
2021/12/10 08:09:41;;;;;;;1.20;0.52;;;19.50;50.60;;;;;;4970639;28;21236;-81
2021/12/10 08:12:07;;;;;;;1.48;0.50;;;19.50;50.60;;;;;;4981458;28;20054;-81
2021/12/10 08:14:32;;;;;;;1.70;0.50;;;19.50;50.60;;;;;;4961860;28;20058;-81
2021/12/10 08:16:58;;;;;;;2.05;0.40;;;19.50;50.60;;;;;;4977796;28;20054;-81
2021/12/10 08:19:23;;;;;;;1.00;0.40;;;19.50;50.60;;;;;;4635555;28;10001382;-82
2021/12/10 08:21:49;;;;;;;0.95;0.35;;;19.50;50.60;;;;;;5011314;28;20073;-81
2021/12/10 08:24:15;;;;;;;1.13;0.43;;;19.50;50.60;;;;;;4975318;28;20538;-82
2021/12/10 08:26:41;;;;;;;1.52;0.50;;;20.00;50.90;;;;;;4981396;28;20053;-83
2021/12/10 08:29:07;;;;;;;1.90;0.73;;;19.50;50.60;;;;;;4986195;28;20066;-82
2021/12/10 08:31:33;;;;;;;1.55;0.65;;;19.50;50.40;;;;;;4972872;28;20136;-82
2021/12/10 08:33:58;;;;;;;2.33;0.63;;;19.50;50.50;;;;;;4987828;28;20666;-82
2021/12/10 08:36:28;;;;;;;1.10;0.50;;;19.40;50.40;;;;;;4979659;28;20454;-90
2021/12/10 08:38:53;;;;;;;0.95;0.40;;;19.80;50.60;;;;;;4971950;28;20067;-82
2021/12/10 08:41:22;;;;;;;3.72;1.00;;;19.40;50.30;;;;;;4983772;28;20477;-79
2021/12/10 08:43:48;;;;;;;5.25;1.35;;;19.40;50.00;;;;;;4985284;28;20049;-79
2021/12/10 08:46:14;;;;;;;3.05;0.98;;;19.40;49.60;;;;;;4994606;28;20054;-80
2021/12/10 08:48:39;;;;;;;6.30;1.10;;;19.40;49.80;;;;;;4973911;28;20043;-80
2021/12/10 08:51:20;;;;;;;3.33;1.00;;;19.30;49.70;;;;;;4975415;28;20144;-82
2021/12/10 08:53:45;;;;;;;2.00;0.68;;;19.40;50.00;;;;;;4963174;28;20047;-82
2021/12/10 08:56:11;;;;;;;2.40;0.90;;;19.30;50.00;;;;;;4968984;28;20047;-82
2021/12/10 08:58:37;;;;;;;3.22;0.95;;;19.60;50.20;;;;;;4967336;28;20562;-81
2021/12/10 09:01:10;;;;;;;3.67;0.82;;;19.30;50.00;;;;;;4966725;28;20110;-81
2021/12/10 09:03:35;;;;;;;1.98;0.70;;;19.50;50.20;;;;;;4978845;28;20143;-81
2021/12/10 09:06:02;;;;;;;2.63;0.82;;;19.40;50.10;;;;;;4967346;28;20051;-82
2021/12/10 09:08:27;;;;;;;3.90;0.82;;;20.30;50.60;;;;;;4958611;28;20039;-81
2021/12/10 09:10:53;;;;;;;2.97;0.60;;;19.80;50.40;;;;;;4952626;28;20055;-81
2021/12/10 09:13:20;;;;;;;2.28;0.60;;;19.40;50.20;;;;;;4970207;28;20051;-79
2021/12/10 09:15:52;;;;;;;1.95;0.60;;;19.40;50.20;;;;;;4969869;28;20056;-82
2021/12/10 09:18:18;;;;;;;1.23;0.50;;;19.40;50.20;;;;;;4970074;28;20581;-81
2021/12/10 09:20:46;;;;;;;3.20;0.60;;;19.40;50.20;;;;;;4970119;28;20043;-80
2021/12/10 09:23:12;;;;;;;2.33;0.60;;;19.80;50.40;;;;;;4971543;28;20526;-81
2021/12/10 09:25:41;;;;;;;2.03;0.60;;;19.40;50.20;;;;;;4978753;28;20059;-81
2021/12/10 09:28:07;;;;;;;2.33;0.70;;;19.40;50.20;;;;;;4982691;28;20050;-81
2021/12/10 09:30:34;;;;;;;4.82;1.02;;;19.40;50.20;;;;;;4967849;28;20476;-81
2021/12/10 09:33:00;;;;;;;2.00;0.68;;;19.40;49.90;;;;;;4977909;28;20082;-81
2021/12/10 09:35:27;;;;;;;3.42;0.90;;;19.40;49.80;;;;;;4951861;28;20089;-82
2021/12/10 09:37:53;;;;;;;2.55;0.73;;;19.40;49.70;;;;;;4950049;29;20393;-82
2021/12/10 09:40:22;;;;;;;2.15;0.82;;;19.40;49.70;;;;;;4950449;28;20138;-82
2021/12/10 09:42:48;;;;;;;2.72;0.73;;;19.40;49.60;;;;;;4957893;28;20086;-81
2021/12/10 09:45:16;;;;;;;2.20;0.70;;;19.70;49.90;;;;;;4953348;28;20455;-81
2021/12/10 09:47:42;;;;;;;2.88;0.90;;;19.80;49.80;;;;;;4966416;28;20180;-81
2021/12/10 09:50:08;;;;;;;2.08;0.80;;;19.50;49.70;;;;;;4960300;28;20042;-80
2021/12/10 09:52:34;;;;;;;2.03;0.63;;;19.50;49.60;;;;;;4969196;28;20476;-80
2021/12/10 09:54:59;;;;;;;4.15;0.70;;;19.50;49.70;;;;;;4978923;28;20129;-81
2021/12/10 09:57:27;;;;;;;3.78;1.00;;;20.60;50.30;;;;;;4972440;28;20057;-79
2021/12/10 09:59:53;;;;;;;6.20;0.80;;;19.50;49.50;;;;;;4965840;28;20051;-80
2021/12/10 10:02:20;;;;;;;2.55;0.57;;;19.50;49.60;;;;;;4968511;28;20050;-81
2021/12/10 10:04:49;;;;;;;6.25;0.90;;;19.50;49.60;;;;;;4964672;28;20145;-80
2021/12/10 10:07:35;;;;;;;7.90;0.80;;;19.50;49.60;;;;;;4950017;29;20067;-81
2021/12/10 10:10:09;;;;;;;2.47;0.85;;;19.60;49.80;;;;;;4985554;28;20065;-80
2021/12/10 10:12:35;;;;;;;2.50;0.73;;;19.60;49.80;;;;;;4977237;28;20490;-81
2021/12/10 10:15:04;;;;;;;4.28;0.70;;;19.60;49.80;;;;;;4972546;28;20544;-79
2021/12/10 10:17:30;;;;;;;8.30;1.40;;;19.60;49.90;;;;;;4988846;28;20057;-82
2021/12/10 10:19:56;;;;;;;2.65;0.70;;;19.60;49.70;;;;;;4983985;28;20039;-81
2021/12/10 10:22:26;;;;;;;4.03;0.73;;;19.60;49.80;;;;;;4963672;28;20106;-81
2021/12/10 10:24:52;;;;;;;2.40;0.60;;;19.70;49.80;;;;;;4967209;28;20047;-81
2021/12/10 10:27:21;;;;;;;6.50;0.70;;;19.70;49.90;;;;;;4973843;28;20047;-81
2021/12/10 10:29:50;;;;;;;3.55;0.60;;;19.70;49.80;;;;;;4981272;28;20073;-81
2021/12/10 10:32:17;;;;;;;2.42;0.60;;;19.70;49.80;;;;;;4968562;28;20137;-81
2021/12/10 10:34:49;;;;;;;3.00;0.60;;;20.40;50.20;;;;;;4968681;28;20057;-79
2021/12/10 10:37:14;;;;;;;3.85;0.60;;;19.70;49.80;;;;;;4968748;28;20488;-81
2021/12/10 10:39:42;;;;;;;2.80;0.57;;;19.70;49.80;;;;;;4968894;28;20134;-82
2021/12/10 10:42:12;;;;;;;4.35;0.85;;;19.70;49.80;;;;;;4969162;28;20051;-81
2021/12/10 10:44:38;;;;;;;2.17;0.77;;;19.70;49.80;;;;;;4969220;28;20046;-80
2021/12/10 10:47:03;;;;;;;2.97;0.68;;;19.70;49.70;;;;;;4968287;28;20117;-81
2021/12/10 10:49:44;;;;;;;1.75;0.47;;;19.70;49.70;;;;;;4956046;28;20082;-81
2021/12/10 10:52:28;;;;;;;5.30;0.57;;;19.80;49.90;;;;;;4969142;28;20050;-81
2021/12/10 10:54:54;;;;;;;3.72;0.60;;;19.80;49.80;;;;;;4984674;28;20497;-81
2021/12/10 10:57:25;;;;;;;1.88;0.40;;;19.90;49.80;;;;;;2988653;28;10020714;-81
2021/12/10 10:59:56;;;;;;;3.05;0.60;;;19.80;49.80;;;;;;4976902;28;20347;-81
2021/12/10 11:02:22;;;;;;;2.88;0.40;;;19.80;49.80;;;;;;4981983;28;20057;-81
2021/12/10 11:04:49;;;;;;;1.95;0.55;;;20.70;50.30;;;;;;4976160;28;20038;-81
2021/12/10 11:07:16;;;;;;;2.08;0.50;;;19.80;49.80;;;;;;4984602;28;20065;-83
2021/12/10 11:10:07;;;;;;;2.35;0.60;;;19.80;49.80;;;;;;4980273;28;20038;-81
2021/12/10 11:12:34;;;;;;;3.75;0.77;;;19.80;49.70;;;;;;5013132;28;20507;-80
2021/12/10 11:15:00;;;;;;;2.25;0.50;;;19.80;49.50;;;;;;4989030;28;20569;-80
2021/12/10 11:17:33;;;;;;;2.35;0.90;;;20.60;50.00;;;;;;4992258;28;20050;-80
2021/12/10 11:20:19;;;;;;;1.38;0.40;;;20.50;49.90;;;;;;4996490;28;20148;-80
2021/12/10 11:22:56;;;;;;;1.55;0.52;;;19.80;49.50;;;;;;5009349;28;20489;-82
2021/12/10 11:25:25;;;;;;;3.03;0.82;;;19.80;49.40;;;;;;4991652;28;20125;-81
2021/12/10 11:27:51;;;;;;;2.47;0.60;;;20.60;49.80;;;;;;4991586;28;20153;-81
2021/12/10 11:30:22;;;;;;;2.38;0.60;;;19.80;49.40;;;;;;4990451;28;20137;-81
2021/12/10 11:32:52;;;;;;;1.42;0.50;;;19.80;49.40;;;;;;4991120;28;20038;-81
2021/12/10 11:35:20;;;;;;;0.93;0.50;;;19.80;49.40;;;;;;4991683;28;20049;-81
2021/12/10 11:37:52;;;;;;;2.47;0.60;;;19.70;49.30;;;;;;4990878;28;20065;-81
2021/12/10 11:40:40;;;;;;;1.70;0.55;;;19.70;49.40;;;;;;4991753;28;20054;-81
2021/12/10 11:48:50;;;;;;;2.13;0.70;;;19.70;49.30;;;;;;4981699;28;20165;-81
2021/12/10 11:51:44;;;;;;;3.45;0.55;;;20.00;49.50;;;;;;4981753;28;20548;-81
2021/12/10 11:54:18;;;;;;;1.70;0.60;;;19.70;49.30;;;;;;4976923;28;20176;-81
2021/12/10 11:56:46;;;;;;;2.00;0.60;;;19.70;49.30;;;;;;5016298;28;20759;-80
2021/12/10 11:59:17;;;;;;;2.17;0.60;;;19.70;49.40;;;;;;4992505;28;20053;-82
2021/12/10 12:01:56;;;;;;;1.73;0.63;;;19.70;49.30;;;;;;5009044;28;20120;-81
2021/12/10 12:04:28;;;;;;;2.47;0.68;;;19.70;49.40;;;;;;5009152;28;20064;-83
2021/12/10 12:07:33;;;;;;;1.88;0.52;;;19.70;49.30;;;;;;5010697;28;20790;-83
2021/12/10 12:10:18;;;;;;;2.40;0.70;;;19.70;49.30;;;;;;4973049;28;20046;-83
2021/12/10 12:20:43;;;;;;;1.92;0.40;;;19.30;49.10;;;;;;5000279;23;20118;-82
2021/12/10 12:27:36;;;;;;;1.38;0.50;;;19.80;49.50;;;;;;4887885;29;20132;-82
2021/12/10 12:30:09;;;;;;;0.85;0.30;;;19.40;49.30;;;;;;4877342;29;20044;-82
2021/12/10 12:32:37;;;;;;;1.73;0.45;;;19.80;49.70;;;;;;4920973;29;20051;-82
2021/12/10 12:35:20;;;;;;;2.38;0.40;;;19.80;49.50;;;;;;4964130;28;20066;-82
2021/12/10 12:37:46;;;;;;;0.85;0.30;;;19.80;49.50;;;;;;4970975;28;20467;-82
2021/12/10 12:40:12;;;;;;;2.10;0.50;;;19.80;49.50;;;;;;4954337;28;20141;-83
2021/12/10 12:42:41;;;;;;;1.77;0.20;;;19.80;49.50;;;;;;4970798;28;20115;-82
2021/12/10 12:45:23;;;;;;;1.58;0.50;;;19.80;49.50;;;;;;4945675;28;20455;-85
2021/12/10 12:47:53;;;;;;;1.75;0.30;;;19.80;49.60;;;;;;4965420;28;20061;-85
2021/12/10 12:50:21;;;;;;;3.40;0.40;;;19.80;49.70;;;;;;4969155;28;20051;-83
2021/12/10 12:52:54;;;;;;;1.85;0.30;;;19.90;49.70;;;;;;4969532;28;20070;-83
2021/12/10 12:55:33;;;;;;;3.35;0.50;;;19.90;49.80;;;;;;4969799;28;20054;-83
2021/12/10 12:58:11;;;;;;;1.13;0.38;;;19.90;49.80;;;;;;4917408;28;20051;-83
2021/12/10 13:00:39;;;;;;;0.82;0.40;;;19.90;49.80;;;;;;4950531;29;20503;-82
2021/12/10 13:03:19;;;;;;;0.73;0.30;;;19.90;49.80;;;;;;4949874;29;20130;-83
2021/12/10 13:06:15;;;;;;;0.57;0.28;;;20.00;49.90;;;;;;4950536;29;20109;-82
2021/12/10 13:08:42;;;;;;;2.78;0.40;;;20.00;49.90;;;;;;4934586;29;20349;-84
2021/12/10 13:11:11;;;;;;;1.10;0.40;;;20.00;49.90;;;;;;4952618;28;20047;-82
2021/12/10 13:13:42;;;;;;;1.67;0.45;;;20.10;49.90;;;;;;4946507;29;20701;-80
2021/12/10 13:16:09;;;;;;;1.02;0.30;;;20.10;49.90;;;;;;4945196;29;20055;-84
2021/12/10 13:18:37;;;;;;;2.08;0.50;;;20.10;49.90;;;;;;4944033;29;20692;-82
2021/12/10 13:21:03;;;;;;;1.92;0.60;;;20.10;49.90;;;;;;4949036;29;20055;-81